6B0

Middlebury State Airport

Middlebury, Vermont, USA
METAR K6B0 210935Z AUTO 00000KT 10SM CLR M01/M03 A3030 RMK AO2 T10121030
Observed Flight Rules
Apr-21 @ 09:35 UTC (17 minutes ago) Visual Flight Rules
Visibility Clouds
10 miles
  • Clear skies
Temperatures Readings
Current -1°C / 30°F
Dewpoint -3°C / 27°F
Humidity 86%
Altimeter 30.3" Hg
Pressure 1026 hPa
Elevation 149
METAR K6B0 210935Z AUTO 00000KT 10SM CLR M01/M03 A3030 RMK AO2 T10121030
Observed Flight Rules
Apr-21 @ 09:35 UTC
(17 minutes ago)
VFR
Clouds
  • Clear skies
Temperature Dewpoint
-1°C / 30°F -3°C / 27°F
Humidity Altimeter Pressure
86% 30.3" Hg 1026 hPa